Time;durP1;ratioP1;P1;durP2;ratioP2;P2;SDS_P1;SDS_P2;PMS_P1;PMS_P2;Temp;Humidity;BMP_temperature;BMP_pressure;BME280_temperature;BME280_humidity;BME280_pressure;Samples;Min_cycle;Max_cycle;Signal;HPM_P1;HPM_P2
2022/03/29 00:02:00;;;;;;;;;24.00;21.00;;;;;16.17;37.39;100890.41;5033169;28;45819;-79
2022/03/29 00:04:26;;;;;;;;;30.67;27.33;;;;;16.20;37.49;100892.69;5035028;28;47271;-81
2022/03/29 00:06:52;;;;;;;;;38.00;28.00;;;;;16.16;37.26;100872.94;5054769;28;45841;-79
2022/03/29 00:09:19;;;;;;;;;19.33;17.00;;;;;16.19;37.28;100879.94;5054363;28;45844;-78
2022/03/29 00:11:45;;;;;;;;;32.67;25.00;;;;;16.18;37.21;100883.78;5053814;28;45650;-80
2022/03/29 00:14:12;;;;;;;;;29.00;22.67;;;;;16.18;37.44;100873.56;5054233;28;45607;-79
2022/03/29 00:16:38;;;;;;;;;31.33;26.00;;;;;16.18;37.35;100864.41;5053551;28;45647;-79
2022/03/29 00:19:04;;;;;;;;;30.67;25.67;;;;;16.09;37.88;100854.78;5054434;28;45702;-80
2022/03/29 00:21:29;;;;;;;;;27.00;21.67;;;;;16.06;37.76;100851.44;5035693;28;45972;-80
2022/03/29 00:23:55;;;;;;;;;33.67;32.00;;;;;16.09;37.93;100843.72;5054039;28;46106;-79
2022/03/29 00:26:20;;;;;;;;;29.67;23.00;;;;;15.98;37.83;100826.91;5048686;28;45304;-78
2022/03/29 00:28:47;;;;;;;;;38.67;31.67;;;;;16.01;38.26;100845.78;5051909;28;45707;-78
2022/03/29 00:31:16;;;;;;;;;41.67;34.00;;;;;15.99;37.69;100845.19;5054959;28;45845;-79
2022/03/29 00:33:42;;;;;;;;;36.00;28.67;;;;;15.98;37.93;100848.19;5045740;28;45724;-79
2022/03/29 00:36:08;;;;;;;;;41.67;33.67;;;;;15.95;38.56;100844.00;5054608;28;45452;-79
2022/03/29 00:38:34;;;;;;;;;38.00;31.33;;;;;15.87;38.15;100831.38;5053599;28;45376;-79
2022/03/29 00:41:00;;;;;;;;;30.67;22.67;;;;;15.83;38.15;100826.56;5056508;28;45735;-81
2022/03/29 00:43:26;;;;;;;;;35.67;30.67;;;;;15.89;37.98;100833.91;5035772;28;47054;-79
2022/03/29 00:45:52;;;;;;;;;27.00;25.00;;;;;15.86;37.83;100824.16;5055374;28;45351;-81
2022/03/29 00:48:18;;;;;;;;;33.33;27.33;;;;;15.82;37.69;100817.44;5053602;28;45958;-79
2022/03/29 00:50:44;;;;;;;;;34.00;25.33;;;;;15.83;38.19;100816.34;5054964;28;45958;-79
2022/03/29 00:53:10;;;;;;;;;28.33;25.33;;;;;15.68;38.39;100791.91;5053813;28;45832;-78
2022/03/29 00:55:37;;;;;;;;;38.00;31.00;;;;;15.72;37.89;100797.81;5031828;28;45399;-79
2022/03/29 00:58:09;;;;;;;;;30.33;30.33;;;;;15.78;38.22;100809.84;5052829;28;45523;-80
2022/03/29 01:00:35;;;;;;;;;43.33;32.00;;;;;15.77;38.41;100802.63;5048779;28;45434;-81
2022/03/29 01:03:03;;;;;;;;;42.67;30.33;;;;;15.75;38.25;100804.78;5050148;28;46477;-78
2022/03/29 01:05:29;;;;;;;;;33.67;27.67;;;;;15.75;38.10;100799.25;5044952;28;45446;-80
2022/03/29 01:07:58;;;;;;;;;34.67;27.33;;;;;15.58;37.62;100771.50;5054951;28;45681;-81
2022/03/29 01:10:25;;;;;;;;;29.00;26.00;;;;;15.71;38.00;100796.13;5047127;28;46066;-80
2022/03/29 01:12:51;;;;;;;;;34.33;27.67;;;;;15.69;37.79;100788.09;5054226;28;46183;-81
2022/03/29 01:15:18;;;;;;;;;30.67;24.67;;;;;15.67;37.61;100789.41;5030076;28;45391;-79
2022/03/29 01:17:45;;;;;;;;;35.00;28.00;;;;;15.67;37.71;100783.88;5054432;28;45439;-79
2022/03/29 01:20:18;;;;;;;;;30.67;22.00;;;;;15.64;37.70;100787.97;5034765;28;45486;-81
2022/03/29 01:22:45;;;;;;;;;32.67;25.67;;;;;15.64;37.64;100778.81;5055003;28;46359;-79
2022/03/29 01:25:22;;;;;;;;;44.00;31.00;;;;;15.63;37.82;100780.75;5056327;28;45436;-78
2022/03/29 01:27:49;;;;;;;;;31.67;28.33;;;;;15.58;37.42;100763.22;5053263;28;45776;-79
2022/03/29 01:30:15;;;;;;;;;26.33;24.33;;;;;15.57;37.47;100764.28;5049950;28;47472;-79
2022/03/29 01:32:46;;;;;;;;;36.00;28.33;;;;;15.62;37.40;100776.31;5053620;28;46187;-80
2022/03/29 01:35:13;;;;;;;;;30.67;27.00;;;;;15.58;37.68;100750.22;5054894;28;45818;-79
2022/03/29 01:37:39;;;;;;;;;30.00;23.33;;;;;15.59;37.64;100751.91;5052059;28;45964;-79
2022/03/29 01:40:13;;;;;;;;;42.00;28.00;;;;;15.64;37.15;100759.47;5051246;28;45805;-80
2022/03/29 01:42:42;;;;;;;;;28.00;24.00;;;;;15.67;37.07;100765.38;5051846;28;45628;-79
2022/03/29 01:45:10;;;;;;;;;28.00;22.00;;;;;15.68;36.95;100755.16;5052291;28;45444;-79
2022/03/29 01:47:36;;;;;;;;;30.00;23.67;;;;;15.68;37.07;100755.97;5051547;28;45778;-78
2022/03/29 01:50:01;;;;;;;;;29.00;20.67;;;;;15.69;36.98;100754.91;5051987;28;45478;-77
2022/03/29 01:52:27;;;;;;;;;30.33;24.33;;;;;15.70;36.33;100744.66;5041257;28;47214;-78
2022/03/29 01:54:52;;;;;;;;;27.67;23.67;;;;;15.60;36.58;100719.56;5052203;28;45582;-81
2022/03/29 01:57:17;;;;;;;;;28.33;24.67;;;;;15.68;36.14;100733.84;5017751;28;46122;-78
2022/03/29 02:02:27;;;;;;;;;25.33;24.33;;;;;15.64;35.91;100727.16;5052042;28;45854;-80
2022/03/29 02:04:53;;;;;;;;;30.33;24.67;;;;;15.57;35.37;100709.00;5051645;28;45794;-79
2022/03/29 02:07:19;;;;;;;;;21.33;17.33;;;;;15.59;35.95;100713.22;5051775;28;45732;-80
2022/03/29 02:09:45;;;;;;;;;32.33;27.00;;;;;15.60;35.59;100716.81;5052611;28;45563;-77
2022/03/29 02:12:12;;;;;;;;;34.00;22.67;;;;;15.55;35.20;100706.47;5046824;28;46359;-77
2022/03/29 02:14:38;;;;;;;;;31.00;24.33;;;;;15.55;35.27;100709.25;5052046;28;45517;-79
2022/03/29 02:17:05;;;;;;;;;32.33;25.67;;;;;15.52;35.21;100704.19;5028642;28;45656;-79
2022/03/29 02:19:30;;;;;;;;;25.00;22.67;;;;;15.48;35.47;100689.22;5053499;28;45585;-77
2022/03/29 02:21:56;;;;;;;;;25.33;23.33;;;;;15.42;35.82;100684.63;5052013;28;46412;-78
2022/03/29 02:24:21;;;;;;;;;25.00;22.00;;;;;15.33;35.17;100665.66;5039546;28;45420;-78
2022/03/29 02:26:47;;;;;;;;;22.67;19.67;;;;;15.48;35.14;100690.03;5050871;28;45605;-77
2022/03/29 02:29:12;;;;;;;;;36.33;23.33;;;;;15.42;34.82;100677.19;5052377;28;45391;-79
2022/03/29 02:31:37;;;;;;;;;29.33;24.33;;;;;15.46;34.83;100681.13;5032891;28;47115;-80
2022/03/29 02:34:03;;;;;;;;;27.67;22.00;;;;;15.45;34.28;100673.94;5038472;28;45453;-80
2022/03/29 02:36:29;;;;;;;;;31.67;21.67;;;;;15.50;34.59;100670.44;5046298;28;45367;-78
2022/03/29 02:38:54;;;;;;;;;33.67;23.67;;;;;15.46;33.88;100661.78;5053603;28;45720;-80
2022/03/29 02:41:20;;;;;;;;;27.00;21.67;;;;;15.42;33.94;100657.84;5055571;28;45987;-77
2022/03/29 02:43:45;;;;;;;;;29.00;22.67;;;;;15.43;33.98;100653.16;5034420;28;45376;-78
2022/03/29 02:46:11;;;;;;;;;25.67;22.00;;;;;15.43;33.82;100655.91;5046687;28;45308;-81
2022/03/29 02:48:36;;;;;;;;;26.67;20.33;;;;;15.41;34.17;100639.56;5052464;28;45851;-77
2022/03/29 02:51:02;;;;;;;;;24.67;20.67;;;;;15.42;34.28;100649.56;5050701;28;45323;-80
2022/03/29 02:53:27;;;;;;;;;27.67;21.33;;;;;15.38;33.75;100639.25;5052274;28;45738;-78
2022/03/29 02:55:53;;;;;;;;;29.33;21.33;;;;;15.44;34.17;100649.31;5042012;28;45535;-76
2022/03/29 02:58:18;;;;;;;;;29.00;22.00;;;;;15.47;33.90;100635.84;5042007;28;45916;-76
2022/03/29 03:00:44;;;;;;;;;24.00;17.67;;;;;15.36;33.28;100612.69;5044652;28;45767;-78
2022/03/29 03:03:09;;;;;;;;;23.67;19.00;;;;;15.45;33.35;100629.72;5052911;28;45396;-78
2022/03/29 03:05:35;;;;;;;;;7.33;4.67;;;;;15.47;33.48;100633.06;5057661;28;45417;-80
2022/03/29 03:08:02;;;;;;;;;22.33;18.33;;;;;15.46;33.61;100620.31;5054434;28;45690;-79
2022/03/29 03:10:28;;;;;;;;;24.67;22.33;;;;;15.59;33.49;100632.22;5037545;28;45616;-76
2022/03/29 03:12:56;;;;;;;;;24.67;19.00;;;;;15.57;33.83;100626.94;5054043;28;45466;-79
2022/03/29 03:15:23;;;;;;;;;22.67;17.67;;;;;15.58;33.46;100611.16;5056147;28;45692;-80
2022/03/29 03:17:58;;;;;;;;;17.00;16.00;;;;;15.77;33.31;100625.66;5047329;28;46517;-77
2022/03/29 03:20:35;;;;;;;;;23.33;20.67;;;;;15.74;33.01;100615.09;5066029;28;46418;-78
2022/03/29 03:23:04;;;;;;;;;22.33;19.00;;;;;15.69;33.62;100591.78;5068613;28;44856;-80
2022/03/29 03:25:29;;;;;;;;;18.67;15.67;;;;;15.69;33.09;100602.00;5051323;28;45513;-77
2022/03/29 03:27:55;;;;;;;;;25.00;22.00;;;;;15.79;33.33;100624.34;5037002;28;46222;-78
2022/03/29 03:30:21;;;;;;;;;26.33;23.67;;;;;15.72;33.70;100609.81;5061740;28;45687;-80
2022/03/29 03:32:47;;;;;;;;;17.00;14.00;;;;;15.76;33.43;100626.72;5052050;28;45359;-79
2022/03/29 03:35:15;;;;;;;;;21.33;17.33;;;;;15.63;33.96;100603.81;5068715;28;45709;-80
2022/03/29 03:37:40;;;;;;;;;17.67;12.67;;;;;15.58;33.89;100598.19;5064485;28;46040;-76
2022/03/29 03:40:09;;;;;;;;;17.67;16.00;;;;;15.64;34.39;100605.50;5066327;28;45446;-80
2022/03/29 03:42:37;;;;;;;;;23.67;20.00;;;;;15.56;34.29;100592.06;5069149;28;45694;-81
2022/03/29 03:45:04;;;;;;;;;29.00;24.33;;;;;15.55;34.51;100598.69;5073593;28;45419;-78
2022/03/29 03:47:31;;;;;;;;;21.67;20.00;;;;;15.54;35.02;100605.31;5077891;28;45488;-80
2022/03/29 03:49:57;;;;;;;;;24.33;17.67;;;;;15.52;34.93;100600.03;5077994;28;45632;-76
2022/03/29 03:52:22;;;;;;;;;24.67;18.33;;;;;15.53;35.15;100598.09;5077431;28;45442;-80
2022/03/29 03:54:48;;;;;;;;;24.00;18.33;;;;;15.38;35.30;100578.44;5061839;28;44789;-81
2022/03/29 03:57:14;;;;;;;;;18.33;16.00;;;;;15.49;34.73;100596.91;5075930;28;45384;-80
2022/03/29 03:59:40;;;;;;;;;24.00;14.67;;;;;15.45;35.18;100592.94;5057894;28;46999;-81
2022/03/29 04:02:05;;;;;;;;;21.33;17.67;;;;;15.36;35.81;100579.53;5076813;28;45274;-79
2022/03/29 04:04:31;;;;;;;;;25.00;19.00;;;;;15.38;35.59;100583.97;5053342;28;45399;-78
2022/03/29 04:06:56;;;;;;;;;23.33;19.67;;;;;15.33;35.73;100577.25;5051908;28;45659;-79
2022/03/29 04:09:24;;;;;;;;;22.67;19.00;;;;;15.29;35.68;100576.06;5051246;28;45375;-80
2022/03/29 04:11:50;;;;;;;;;28.67;21.00;;;;;15.00;36.38;100537.34;5055694;28;45688;-79
2022/03/29 04:14:16;;;;;;;;;22.00;17.33;;;;;15.03;36.14;100546.22;5053942;28;45414;-78
2022/03/29 04:16:41;;;;;;;;;26.00;22.00;;;;;15.15;36.86;100574.66;5054566;28;45529;-81
2022/03/29 04:19:07;;;;;;;;;30.00;22.33;;;;;14.96;37.08;100538.06;5047685;28;45794;-81
2022/03/29 04:21:33;;;;;;;;;26.67;20.67;;;;;15.10;36.35;100571.78;5048412;28;45809;-80
2022/03/29 04:23:58;;;;;;;;;27.00;23.67;;;;;14.98;36.67;100547.81;5039291;28;45528;-78
2022/03/29 04:26:24;;;;;;;;;24.00;20.00;;;;;14.90;37.29;100534.34;5050026;28;47464;-76
2022/03/29 04:28:52;;;;;;;;;29.00;20.33;;;;;14.96;37.52;100555.47;5058224;28;46072;-80
2022/03/29 04:31:17;;;;;;;;;24.33;20.00;;;;;14.95;37.56;100558.47;5042191;28;46497;-81
2022/03/29 04:33:45;;;;;;;;;24.33;19.33;;;;;14.94;37.87;100568.69;5041739;28;46773;-76
2022/03/29 04:36:10;;;;;;;;;23.67;20.33;;;;;14.92;38.51;100570.00;5042519;28;45692;-82
2022/03/29 04:38:35;;;;;;;;;23.00;21.67;;;;;14.87;38.68;100550.56;5054096;28;45856;-79
2022/03/29 04:41:01;;;;;;;;;29.33;23.00;;;;;14.97;38.84;100565.44;5033070;28;45477;-79
2022/03/29 04:43:27;;;;;;;;;36.00;27.00;;;;;14.86;38.49;100546.97;5033027;28;46161;-81
2022/03/29 04:45:52;;;;;;;;;32.00;23.67;;;;;14.85;38.67;100542.53;5047099;28;46590;-79
2022/03/29 04:48:18;;;;;;;;;26.00;24.33;;;;;14.97;39.14;100564.59;5044349;28;45968;-76
2022/03/29 04:50:43;;;;;;;;;32.00;22.00;;;;;14.96;38.58;100561.00;5020085;28;45818;-78
2022/03/29 04:53:09;;;;;;;;;30.67;23.00;;;;;14.97;39.51;100554.41;5044644;28;45494;-81
2022/03/29 04:55:34;;;;;;;;;38.00;24.50;;;;;14.98;39.21;100546.94;5036296;28;46143;-79
2022/03/29 04:58:00;;;;;;;;;27.00;22.67;;;;;14.87;39.38;100528.50;5056705;28;45727;-78
2022/03/29 05:00:26;;;;;;;;;29.00;21.33;;;;;14.84;39.52;100527.03;5037859;28;45879;-78
2022/03/29 05:02:52;;;;;;;;;33.00;24.33;;;;;14.81;39.53;100535.81;5042465;28;45755;-78
2022/03/29 05:05:18;;;;;;;;;27.00;23.67;;;;;14.83;39.70;100545.53;5050230;28;45430;-80
2022/03/29 05:07:44;;;;;;;;;34.00;23.33;;;;;14.84;39.86;100546.38;5021134;28;47430;-80
2022/03/29 05:10:11;;;;;;;;;31.67;22.00;;;;;14.95;39.91;100562.06;5053602;28;45307;-81
2022/03/29 05:12:51;;;;;;;;;27.00;19.67;;;;;15.04;39.71;100572.75;5055778;28;45491;-81
2022/03/29 05:15:19;;;;;;;;;26.33;23.67;;;;;15.10;39.45;100571.78;5056885;28;45387;-80
2022/03/29 05:17:49;;;;;;;;;21.33;19.33;;;;;15.04;38.70;100545.13;5052852;28;48132;-83
2022/03/29 05:20:15;;;;;;;;;26.00;19.33;;;;;15.16;38.77;100554.22;5036146;28;45643;-80
2022/03/29 05:22:51;;;;;;;;;29.67;21.67;;;;;15.13;38.55;100550.03;5043227;28;45513;-77
2022/03/29 05:25:21;;;;;;;;;31.00;25.67;;;;;15.11;39.05;100554.97;5053060;28;45867;-77
2022/03/29 05:27:48;;;;;;;;;28.33;23.67;;;;;15.11;38.98;100556.91;5050850;28;47426;-81
2022/03/29 05:30:14;;;;;;;;;25.00;21.00;;;;;15.11;38.82;100559.66;5032488;28;45751;-80
2022/03/29 05:32:41;;;;;;;;;30.33;24.33;;;;;15.11;38.33;100560.47;5029832;28;46091;-80
2022/03/29 05:35:09;;;;;;;;;24.00;21.67;;;;;15.14;38.53;100556.41;5033432;28;45820;-81
2022/03/29 05:37:40;;;;;;;;;23.67;21.00;;;;;15.20;38.51;100560.94;5031147;28;46837;-82
2022/03/29 05:40:07;;;;;;;;;24.33;19.67;;;;;15.26;38.37;100553.59;5039927;28;44831;-83
2022/03/29 05:42:40;;;;;;;;;25.00;24.33;;;;;15.28;38.28;100552.25;5039199;28;45422;-84
2022/03/29 05:45:07;;;;;;;;;22.67;19.00;;;;;15.18;37.84;100527.22;5033521;28;46744;-80
2022/03/29 05:50:16;;;;;;;;;26.67;21.67;;;;;15.35;37.20;100538.31;5048172;28;45499;-81
2022/03/29 05:52:42;;;;;;;;;26.67;22.67;;;;;15.30;37.83;100541.81;5052492;28;45837;-81
2022/03/29 05:55:08;;;;;;;;;32.33;26.33;;;;;15.34;38.51;100548.53;5042196;28;46916;-81
2022/03/29 05:57:34;;;;;;;;;33.33;26.00;;;;;15.36;37.90;100538.06;5053583;28;46729;-80
2022/03/29 06:00:00;;;;;;;;;24.33;20.33;;;;;15.35;38.08;100536.38;5049257;28;45529;-80
2022/03/29 06:02:25;;;;;;;;;27.33;22.00;;;;;15.33;37.92;100535.81;5032500;28;45887;-82
2022/03/29 06:04:51;;;;;;;;;27.67;24.00;;;;;15.23;37.89;100516.25;5053812;28;45699;-82
2022/03/29 06:07:17;;;;;;;;;28.33;24.67;;;;;15.28;37.98;100532.09;5048391;28;47148;-80
2022/03/29 06:09:43;;;;;;;;;29.67;23.33;;;;;15.21;38.18;100518.44;5044422;28;45757;-80
2022/03/29 06:12:09;;;;;;;;;23.33;20.33;;;;;15.28;38.26;100530.16;5050149;28;45453;-79
2022/03/29 06:14:35;;;;;;;;;29.67;23.33;;;;;15.18;37.76;100508.72;5028328;28;46325;-82
2022/03/29 06:17:01;;;;;;;;;29.67;18.00;;;;;15.24;37.71;100517.94;5049380;28;46330;-83
2022/03/29 06:19:27;;;;;;;;;30.33;24.33;;;;;15.34;37.75;100531.97;5037256;28;45393;-82
2022/03/29 06:21:53;;;;;;;;;30.00;24.00;;;;;15.38;37.42;100537.00;5057522;28;45842;-80
2022/03/29 06:24:27;;;;;;;;;27.67;23.33;;;;;15.42;37.80;100551.97;5059414;28;45760;-81
2022/03/29 06:26:53;;;;;;;;;32.00;23.00;;;;;15.41;37.60;100547.56;5042285;28;46898;-81
2022/03/29 06:29:34;;;;;;;;;20.67;19.00;;;;;15.55;37.81;100565.50;5042130;28;45714;-84
2022/03/29 06:32:00;;;;;;;;;32.67;24.33;;;;;15.48;37.71;100526.16;5047006;28;47023;-83
2022/03/29 06:34:26;;;;;;;;;30.00;25.67;;;;;15.74;37.29;100548.72;5030248;28;45512;-86
2022/03/29 06:36:52;;;;;;;;;23.33;17.33;;;;;15.80;36.67;100548.59;5064034;27;45557;-86
2022/03/29 06:39:18;;;;;;;;;32.00;25.33;;;;;15.87;36.70;100554.00;5056896;28;45321;-82
2022/03/29 06:41:44;;;;;;;;;33.67;22.67;;;;;15.93;37.31;100569.59;5053571;28;45909;-81
2022/03/29 06:44:10;;;;;;;;;35.67;21.67;;;;;16.00;37.37;100570.28;5054879;28;45427;-82
2022/03/29 06:46:39;;;;;;;;;25.33;24.67;;;;;15.95;36.65;100550.78;5053491;28;45676;-88
2022/03/29 06:49:06;;;;;;;;;21.33;18.00;;;;;16.15;37.29;100583.53;5061946;28;45908;-85
2022/03/29 06:51:36;;;;;;;;;27.67;23.33;;;;;16.21;36.82;100582.53;5066060;28;44814;-90
2022/03/29 06:54:05;;;;;;;;;30.33;25.00;;;;;16.27;36.35;100574.28;5058085;28;46446;-88
2022/03/29 06:56:31;;;;;;;;;21.00;20.00;;;;;15.88;36.70;100505.88;5056234;28;45383;-86
2022/03/29 06:58:58;;;;;;;;;24.67;20.00;;;;;16.33;35.79;100563.06;5027597;28;45454;-80
2022/03/29 07:01:23;;;;;;;;;30.33;24.67;;;;;16.32;36.12;100561.38;5022033;28;45383;-81
2022/03/29 07:03:49;;;;;;;;;28.00;23.00;;;;;16.33;36.42;100563.06;5028863;28;45384;-80
2022/03/29 07:06:14;;;;;;;;;28.00;23.33;;;;;16.35;36.71;100568.34;5035646;28;45829;-86
2022/03/29 07:11:16;;;;;;;;;26.33;21.00;;;;;16.43;37.38;100565.16;5042698;28;45810;-84
2022/03/29 07:11:26;;;;;;;;;27.33;19.67;;;;;16.47;36.27;100544.19;5032526;28;45504;-80
2022/03/29 07:13:51;;;;;;;;;25.33;19.00;;;;;16.67;36.13;100560.25;5015358;28;46733;-78
2022/03/29 07:16:17;;;;;;;;;32.67;21.00;;;;;16.57;36.00;100524.97;5037403;28;46653;-81
2022/03/29 07:18:43;;;;;;;;;26.33;23.00;;;;;16.76;35.72;100549.59;5035570;28;45505;-84
2022/03/29 07:21:12;;;;;;;;;33.33;25.67;;;;;16.75;35.99;100547.91;5035797;28;45414;-85
2022/03/29 07:23:38;;;;;;;;;23.67;23.67;;;;;16.71;36.80;100542.03;5020969;28;46082;-81
2022/03/29 07:26:05;;;;;;;;;30.67;23.67;;;;;16.70;36.44;100539.53;5019173;28;46951;-81
2022/03/29 07:28:30;;;;;;;;;29.33;22.33;;;;;16.64;36.39;100541.38;5034260;28;45887;-87
2022/03/29 07:30:56;;;;;;;;;31.67;23.33;;;;;16.65;35.95;100542.25;5042601;28;45693;-86
2022/03/29 07:33:22;;;;;;;;;29.00;21.67;;;;;16.61;36.08;100541.91;5039097;28;45397;-84
2022/03/29 07:35:48;;;;;;;;;29.67;22.33;;;;;16.41;36.42;100506.44;5021454;28;47002;-84
2022/03/29 07:38:14;;;;;;;;;31.00;23.33;;;;;16.50;36.13;100527.06;5046428;28;45526;-88
2022/03/29 07:40:42;;;;;;;;;26.00;21.00;;;;;16.40;36.75;100524.97;5037498;28;44774;-84
2022/03/29 07:43:10;;;;;;;;;29.00;19.00;;;;;16.38;36.56;100529.94;5019754;28;45482;-81
2022/03/29 07:45:37;;;;;;;;;34.67;27.00;;;;;16.01;36.78;100486.19;5032033;28;46951;-83
2022/03/29 07:48:03;;;;;;;;;29.00;26.33;;;;;16.26;37.11;100537.50;5035341;28;45473;-82
2022/03/29 07:50:30;;;;;;;;;31.33;28.00;;;;;16.19;37.13;100526.56;5033665;28;45458;-84
2022/03/29 07:52:57;;;;;;;;;26.00;22.00;;;;;16.05;37.65;100494.81;5037762;28;46284;-82
2022/03/29 07:55:23;;;;;;;;;35.67;26.00;;;;;16.00;37.62;100498.34;5016909;28;47469;-83
2022/03/29 07:57:48;;;;;;;;;30.33;25.33;;;;;16.06;38.19;100518.63;5018536;28;45867;-83
2022/03/29 08:00:33;;;;;;;;;30.67;25.67;;;;;15.84;37.68;100479.81;5036840;28;45493;-82
2022/03/29 08:03:05;;;;;;;;;30.00;25.67;;;;;15.98;38.30;100507.97;5037587;28;45596;-82
2022/03/29 08:05:32;;;;;;;;;28.00;22.67;;;;;15.96;38.01;100519.28;5017426;28;46764;-83
2022/03/29 08:07:58;;;;;;;;;28.00;23.67;;;;;16.02;38.01;100539.59;5016984;28;45539;-79
2022/03/29 08:10:29;;;;;;;;;33.33;29.67;;;;;15.93;38.09;100505.97;5024074;28;45727;-83
2022/03/29 08:12:57;;;;;;;;;35.33;28.00;;;;;16.22;38.14;100523.31;5040824;28;45372;-83
2022/03/29 08:15:23;;;;;;;;;29.67;24.33;;;;;16.39;37.67;100517.78;5041169;28;45810;-80
2022/03/29 08:17:48;;;;;;;;;33.67;25.67;;;;;16.38;37.38;100502.25;5037937;28;45477;-79
2022/03/29 08:20:14;;;;;;;;;25.67;19.67;;;;;16.54;37.16;100511.63;5028245;28;45378;-78
2022/03/29 08:22:46;;;;;;;;;33.67;26.00;;;;;16.64;37.19;100508.16;5016477;28;46265;-80
2022/03/29 08:25:13;;;;;;;;;22.00;19.33;;;;;16.64;37.58;100494.31;5035085;28;46728;-79
2022/03/29 08:27:39;;;;;;;;;32.33;28.33;;;;;16.76;37.28;100494.19;5018828;28;46139;-81
2022/03/29 08:30:05;;;;;;;;;28.33;25.33;;;;;16.83;37.53;100485.72;5035938;28;45720;-81
2022/03/29 08:32:32;;;;;;;;;27.67;22.33;;;;;17.11;37.15;100506.84;5020560;28;45763;-78
2022/03/29 08:34:58;;;;;;;;;26.33;22.67;;;;;17.15;36.99;100490.56;5017578;28;48205;-83
2022/03/29 08:37:25;;;;;;;;;37.00;29.67;;;;;17.31;36.65;100486.88;5037828;28;45328;-82
2022/03/29 08:39:50;;;;;;;;;28.00;22.67;;;;;17.54;36.80;100491.25;5027973;28;47121;-79
2022/03/29 08:42:19;;;;;;;;;38.33;33.33;;;;;17.74;36.25;100487.00;5044146;28;45435;-82
2022/03/29 08:44:45;;;;;;;;;35.67;26.67;;;;;18.05;35.80;100488.16;5039808;28;47957;-77
2022/03/29 08:47:12;;;;;;;;;33.33;26.33;;;;;18.25;35.02;100473.59;5021676;28;45618;-80
2022/03/29 08:49:38;;;;;;;;;31.33;28.67;;;;;18.59;34.97;100481.56;5020047;28;45611;-80
2022/03/29 08:52:05;;;;;;;;;40.33;26.67;;;;;18.78;34.61;100479.16;5035251;28;46087;-79
2022/03/29 08:54:32;;;;;;;;;44.33;32.00;;;;;18.91;34.13;100468.69;5043757;28;47774;-82
2022/03/29 08:56:58;;;;;;;;;37.00;29.33;;;;;19.01;33.97;100465.97;5041530;28;45724;-82
2022/03/29 08:59:26;;;;;;;;;25.33;23.33;;;;;19.20;33.91;100464.34;5033782;28;45589;-83
2022/03/29 09:01:52;;;;;;;;;32.33;24.67;;;;;19.35;33.68;100465.50;5037102;28;45339;-80
2022/03/29 09:04:21;;;;;;;;;37.00;26.00;;;;;19.37;33.30;100441.03;5035625;28;46372;-83
2022/03/29 09:06:50;;;;;;;;;40.67;32.00;;;;;19.58;33.28;100450.25;5038336;28;45951;-81
2022/03/29 09:09:27;;;;;;;;;35.67;29.33;;;;;19.70;33.10;100449.97;5040632;28;45904;-82
2022/03/29 09:11:55;;;;;;;;;37.67;32.33;;;;;19.75;32.94;100433.28;5042424;28;45714;-81
2022/03/29 09:14:25;;;;;;;;;34.00;29.00;;;;;19.85;32.59;100447.25;5034134;28;45348;-82
2022/03/29 09:16:54;;;;;;;;;34.33;30.00;;;;;19.85;32.80;100436.13;5030999;28;45778;-79
2022/03/29 09:19:25;;;;;;;;;33.67;26.67;;;;;19.85;32.86;100440.81;5014690;28;45378;-79
2022/03/29 09:21:54;;;;;;;;;23.67;22.33;;;;;19.93;32.48;100445.84;5028077;28;45403;-79
2022/03/29 09:24:20;;;;;;;;;34.00;27.33;;;;;20.03;32.63;100442.22;5034418;28;45600;-83
2022/03/29 09:26:52;;;;;;;;;40.33;31.33;;;;;20.04;32.41;100432.75;5038703;28;45487;-83
2022/03/29 09:29:25;;;;;;;;;45.00;30.00;;;;;20.24;32.42;100443.88;5011194;28;46986;-80
2022/03/29 09:32:11;;;;;;;;;33.33;28.00;;;;;20.28;32.15;100425.47;5032083;28;46130;-83
2022/03/29 09:34:38;;;;;;;;;32.33;26.00;;;;;20.45;31.92;100421.53;5037305;28;47584;-82
2022/03/29 09:37:05;;;;;;;;;32.33;26.67;;;;;20.80;31.11;100444.84;5037765;28;45601;-80
2022/03/29 09:39:31;;;;;;;;;36.33;26.33;;;;;21.10;31.01;100443.03;5030023;28;45427;-80
2022/03/29 09:42:01;;;;;;;;;39.67;32.67;;;;;21.37;30.71;100438.97;5016140;28;46071;-81
2022/03/29 09:44:42;;;;;;;;;32.33;28.33;;;;;21.65;30.10;100429.03;5027755;28;46017;-79
2022/03/29 09:47:09;;;;;;;;;26.33;22.00;;;;;22.18;29.57;100422.69;5034024;28;45568;-82
2022/03/29 09:49:55;;;;;;;;;39.67;30.33;;;;;22.81;29.38;100424.50;5035090;28;45450;-79
2022/03/29 09:52:28;;;;;;;;;39.67;30.33;;;;;23.32;28.43;100420.19;5015742;28;45616;-81
2022/03/29 09:55:09;;;;;;;;;35.67;28.00;;;;;23.57;27.47;100418.16;5017294;28;47350;-83
2022/03/29 09:57:44;;;;;;;;;32.67;24.33;;;;;23.87;26.84;100427.22;5029445;28;45490;-82
2022/03/29 10:00:13;;;;;;;;;27.33;26.00;;;;;24.28;26.28;100420.84;5036236;28;45851;-84
2022/03/29 10:02:41;;;;;;;;;32.00;26.00;;;;;24.65;25.69;100407.84;5030579;28;45990;-80
2022/03/29 10:05:10;;;;;;;;;32.00;26.33;;;;;25.10;25.02;100410.78;5017399;28;46117;-79
2022/03/29 10:07:42;;;;;;;;;38.33;27.67;;;;;25.53;24.69;100409.53;5029975;28;45834;-77
2022/03/29 10:10:09;;;;;;;;;32.33;30.00;;;;;25.84;24.20;100389.09;5031769;28;45512;-80
2022/03/29 10:12:35;;;;;;;;;32.67;26.67;;;;;26.23;23.78;100387.53;5014771;28;46918;-80
2022/03/29 10:15:02;;;;;;;;;30.00;25.67;;;;;26.61;23.17;100387.81;5012412;28;46965;-82
2022/03/29 10:17:28;;;;;;;;;33.00;30.00;;;;;26.68;22.98;100375.31;5017358;28;45552;-83
2022/03/29 10:19:56;;;;;;;;;34.33;26.33;;;;;26.81;22.48;100385.59;5029817;28;45776;-82
2022/03/29 10:22:21;;;;;;;;;29.67;25.67;;;;;26.96;22.07;100381.47;5017592;28;45788;-82
2022/03/29 10:24:47;;;;;;;;;30.00;29.00;;;;;27.17;22.06;100376.06;5028005;28;46122;-85
2022/03/29 10:27:16;;;;;;;;;36.00;26.67;;;;;27.49;22.10;100371.13;5019165;28;45480;-84
2022/03/29 10:29:42;;;;;;;;;44.00;36.33;;;;;27.75;21.60;100367.41;5014415;28;45691;-82
2022/03/29 10:32:10;;;;;;;;;32.33;26.00;;;;;28.08;21.96;100366.88;5016540;28;46116;-82
2022/03/29 10:34:39;;;;;;;;;39.33;29.00;;;;;28.38;21.64;100369.72;5013325;28;47239;-80
2022/03/29 10:37:05;;;;;;;;;39.33;28.67;;;;;28.40;21.52;100370.22;5013362;28;45876;-85
2022/03/29 10:39:45;;;;;;;;;30.67;27.33;;;;;28.30;21.33;100369.44;5033941;28;46074;-84
2022/03/29 10:42:23;;;;;;;;;36.33;28.67;;;;;27.94;21.76;100359.41;5034907;28;46614;-82
2022/03/29 10:45:06;;;;;;;;;33.00;26.33;;;;;27.63;21.61;100366.09;5026312;28;45652;-82
2022/03/29 10:47:33;;;;;;;;;24.00;21.33;;;;;27.18;21.72;100355.19;5027138;28;45506;-82
2022/03/29 10:50:00;;;;;;;;;33.00;26.00;;;;;26.78;22.12;100364.59;5034015;28;47148;-83
2022/03/29 10:52:25;;;;;;;;;33.67;30.67;;;;;26.44;22.83;100359.66;5015029;28;45862;-78
2022/03/29 10:54:53;;;;;;;;;50.67;41.00;;;;;26.11;22.87;100345.13;5014101;28;47166;-83
2022/03/29 10:57:28;;;;;;;;;42.00;29.67;;;;;25.96;22.87;100350.00;5018132;28;45747;-83
2022/03/29 11:00:06;;;;;;;;;28.00;24.33;;;;;25.76;23.11;100350.56;5012492;28;46119;-83
2022/03/29 11:02:33;;;;;;;;;28.33;25.33;;;;;25.53;23.29;100337.34;5025492;28;46028;-77
2022/03/29 11:05:08;;;;;;;;;35.33;33.67;;;;;25.46;23.79;100347.38;5022312;28;46707;-78
2022/03/29 11:07:47;;;;;;;;;30.67;27.00;;;;;25.37;24.13;100342.53;5024285;28;45807;-77
2022/03/29 11:10:16;;;;;;;;;29.33;23.33;;;;;25.35;24.15;100341.19;5026710;28;45833;-79
2022/03/29 11:12:44;;;;;;;;;31.67;26.00;;;;;25.15;23.97;100326.50;5025620;28;45757;-79
2022/03/29 11:15:24;;;;;;;;;35.00;25.33;;;;;25.15;24.05;100337.72;5010129;28;46837;-79
2022/03/29 11:17:54;;;;;;;;;37.67;25.33;;;;;25.00;24.38;100333.28;5020949;28;45743;-77